Airfield :
LOGIN :

Register | Disclaimer

   EN    FR    IT 

 










Legend :    VFR   Marginal VFR   IFR   Intensive IFR   Very Intensive IFR
Visi :
Ceiling :
>= 8 km
>= 3000ft
5 to 8 km
1000 to 3000 ft
1500m to 5 km
500 to 1000 ft
800 to 1500m
200 to 500 ft
< 800m
< 200 ft
Symbols :   Thunderstorms  Fog  Heavy snow  Heavy precipitations  Wind > 20 kt
SIGMETs :     Misc.  Thunderstorms  Icing  Turbulence  Mountain Waves  Volcanic Ashes







- Airport Elevation : 453 ft
- IATA code : SBK
- Download approach charts


LFRT - St Brieuc Armor

CURRENT METAR :
  • 220800Z AUTO 18006KT 140V220 9999 -RADZ SCT029 SCT048 OVC062 12/10 Q1021

EXPIRED METARs :
  • 220730Z AUTO 19006KT 130V260 9999 -RA NSC 12/10 Q1021
  • 220700Z AUTO 18006KT 140V230 CAVOK 12/09 Q1021
  • 220630Z AUTO 18004KT 140V220 CAVOK 12/09 Q1021
  • 220600Z AUTO 17005KT 150V210 CAVOK 12/09 Q1021

Expired Forecast.
No reported NOTAMs for that airfield.
1 SIGMET reported for the Brest FIR (LFRR) :
 
Severe icing
LFRR SIGMET 1 VALID 220630/221000 LFPW
LFRR BREST FIR/UIR SEV ICE FCST WI N4930 W00445 - N5000 W00200 - N5000 W00015 - N4845 W00015 - N4900 W00400 - N4930 W00445 FL080/200 MOV E 35KT NC=



MET'MAP, your aeronautical weather chart ! - Copyright ORBIFLY December 2007 - Disclaimer

ORBIFLY MET'MAP TEAM :

Programming & Development : Alexandra Zaïnal
Concept & Development : Baudouin d'Aumeries
Co-Development & Prog : Marc-Olivier Méhu
Technical & hardware support : Manuel Goepfert

Contact : metmap@orbifly.com




SOURCES & CREDITS :

   NOAA